createdAt,value
2019-02-15T00:00:59.178Z,2.70
2019-02-15T00:03:50.437Z,2.70
2019-02-15T00:06:35.552Z,2.70
2019-02-15T00:09:19.339Z,2.70
2019-02-15T00:12:10.445Z,2.70
2019-02-15T00:14:54.059Z,2.70
2019-02-15T00:18:04.147Z,2.70
2019-02-15T00:20:56.432Z,2.70
2019-02-15T00:23:47.658Z,2.70
2019-02-15T00:26:31.508Z,2.60
2019-02-15T00:29:22.523Z,2.60
2019-02-15T00:32:07.574Z,2.50
2019-02-15T00:34:58.755Z,2.60
2019-02-15T00:37:42.729Z,2.60
2019-02-15T00:40:33.948Z,2.50
2019-02-15T00:43:22.334Z,2.50
2019-02-15T00:46:29.064Z,2.50
2019-02-15T00:49:31.641Z,2.50
2019-02-15T00:52:41.635Z,2.50
2019-02-15T00:55:34.337Z,2.50
2019-02-15T00:58:44.321Z,2.50
2019-02-15T01:01:47.496Z,2.50
2019-02-15T01:04:57.558Z,2.40
2019-02-15T01:08:01.518Z,2.40
2019-02-15T01:10:52.445Z,2.40
2019-02-15T01:13:36.046Z,2.40
2019-02-15T01:16:27.079Z,2.40
2019-02-15T01:19:10.561Z,2.40
2019-02-15T01:22:01.738Z,2.40
2019-02-15T01:24:33.833Z,2.30
2019-02-15T01:27:44.168Z,2.40
2019-02-15T01:30:49.772Z,2.40
2019-02-15T01:33:59.868Z,2.40
2019-02-15T01:36:49.560Z,2.30
2019-02-15T01:39:59.542Z,2.20
2019-02-15T01:43:05.194Z,2.10
2019-02-15T01:46:15.164Z,2.10
2019-02-15T01:48:59.440Z,2.00
2019-02-15T01:51:50.493Z,2.00
2019-02-15T01:54:35.065Z,2.00
2019-02-15T01:57:26.159Z,2.10
2019-02-15T02:00:12.341Z,2.10
2019-02-15T02:03:03.530Z,2.10
2019-02-15T02:05:47.219Z,2.10
2019-02-15T02:08:38.452Z,2.10
2019-02-15T02:11:21.783Z,2.00
2019-02-15T02:14:13.089Z,2.00
2019-02-15T02:16:56.598Z,1.90
2019-02-15T02:19:47.694Z,1.90
2019-02-15T02:22:32.711Z,1.90
2019-02-15T02:25:23.914Z,1.90
2019-02-15T02:28:07.609Z,1.80
2019-02-15T02:30:53.003Z,1.80
2019-02-15T02:33:36.998Z,1.80
2019-02-15T02:36:47.779Z,1.80
2019-02-15T02:39:31.641Z,1.80
2019-02-15T02:42:22.793Z,1.80
2019-02-15T02:45:06.826Z,1.90
2019-02-15T02:47:39.017Z,1.80
2019-02-15T02:50:51.762Z,1.80
2019-02-15T02:53:37.518Z,1.80
2019-02-15T02:56:28.506Z,1.90
2019-02-15T02:59:12.385Z,1.90
2019-02-15T03:02:03.608Z,1.80
2019-02-15T03:04:47.551Z,1.70
2019-02-15T03:07:38.757Z,1.60
2019-02-15T03:10:22.053Z,1.60
2019-02-15T03:13:13.251Z,1.50
2019-02-15T03:15:57.298Z,1.60
2019-02-15T03:18:48.770Z,1.60
2019-02-15T03:21:33.067Z,1.60
2019-02-15T03:24:24.298Z,1.60
2019-02-15T03:27:08.466Z,1.60
2019-02-15T03:29:59.751Z,1.60
2019-02-15T03:32:44.668Z,1.60
2019-02-15T03:35:16.707Z,1.60
2019-02-15T03:41:41.297Z,1.60
2019-02-15T03:44:26.232Z,1.60
2019-02-15T03:47:36.256Z,1.60
2019-02-15T03:50:21.840Z,1.50
2019-02-15T03:53:13.033Z,1.60
2019-02-15T03:55:58.104Z,1.50
2019-02-15T03:58:49.336Z,1.60
2019-02-15T04:04:38.651Z,1.60
2019-02-15T04:07:22.892Z,1.60
2019-02-15T04:10:07.824Z,1.60
2019-02-15T04:12:58.921Z,1.60
2019-02-15T04:15:42.889Z,1.60
2019-02-15T04:18:34.033Z,1.60
2019-02-15T04:21:17.921Z,1.60
2019-02-15T04:24:09.154Z,1.60
2019-02-15T04:26:41.390Z,1.50
2019-02-15T04:29:13.315Z,1.50
2019-02-15T04:31:45.435Z,1.50
2019-02-15T04:34:17.581Z,1.50
2019-02-15T04:37:02.440Z,1.40
2019-02-15T04:39:46.848Z,1.40
2019-02-15T04:42:38.123Z,1.40
2019-02-15T04:45:22.211Z,1.40
2019-02-15T04:48:05.810Z,1.40
2019-02-15T04:50:57.237Z,1.50
2019-02-15T04:53:41.348Z,1.50
2019-02-15T04:56:32.456Z,1.40
2019-02-15T04:59:16.563Z,1.50
2019-02-15T05:02:07.743Z,1.40
2019-02-15T05:04:52.229Z,1.40
2019-02-15T05:07:43.407Z,1.40
2019-02-15T05:10:15.390Z,1.40
2019-02-15T05:13:06.795Z,1.40
2019-02-15T05:15:54.671Z,1.40
2019-02-15T05:18:45.889Z,1.30
2019-02-15T05:21:30.124Z,1.30
2019-02-15T05:24:13.706Z,1.40
2019-02-15T05:27:04.774Z,1.40
2019-02-15T05:29:48.709Z,1.30
2019-02-15T05:32:32.365Z,1.30
2019-02-15T05:35:17.308Z,1.30
2019-02-15T05:38:08.405Z,1.30
2019-02-15T05:40:52.204Z,1.30
2019-02-15T05:43:43.276Z,1.20
2019-02-15T05:46:26.868Z,1.20
2019-02-15T05:49:18.370Z,1.20
2019-02-15T05:55:05.355Z,1.20
2019-02-15T05:57:57.664Z,1.30
2019-02-15T06:00:42.555Z,1.30
2019-02-15T06:06:46.567Z,1.30
2019-02-15T06:09:30.360Z,1.20
2019-02-15T06:12:23.279Z,1.20
2019-02-15T06:14:57.380Z,1.10
2019-02-15T06:17:48.588Z,1.10
2019-02-15T06:20:32.892Z,1.10
2019-02-15T06:23:23.960Z,1.10
2019-02-15T06:26:08.564Z,1.10
2019-02-15T06:28:59.671Z,1.10
2019-02-15T06:31:43.145Z,1.00
2019-02-15T06:34:28.191Z,1.00
2019-02-15T06:37:19.295Z,1.00
2019-02-15T06:40:03.408Z,1.10
2019-02-15T06:42:35.565Z,1.10
2019-02-15T06:45:24.616Z,1.10
2019-02-15T06:48:12.271Z,1.10
2019-02-15T06:50:56.205Z,1.10
2019-02-15T06:53:39.608Z,1.10
2019-02-15T06:56:23.573Z,1.10
2019-02-15T06:59:33.547Z,1.10
2019-02-15T07:02:36.808Z,1.10
2019-02-15T07:05:28.179Z,1.10
2019-02-15T07:08:12.017Z,1.20
2019-02-15T07:11:04.821Z,1.20
2019-02-15T07:13:50.349Z,1.20
2019-02-15T07:16:41.618Z,1.30
2019-02-15T07:19:26.060Z,1.30
2019-02-15T07:25:19.104Z,1.40
2019-02-15T07:28:02.934Z,1.40
2019-02-15T07:30:54.219Z,1.40
2019-02-15T07:33:39.196Z,1.50
2019-02-15T07:36:30.438Z,1.50
2019-02-15T07:39:13.917Z,1.50
2019-02-15T07:42:05.067Z,1.60
2019-02-15T07:44:49.064Z,1.70
2019-02-15T07:47:40.392Z,1.70
2019-02-15T07:50:24.170Z,1.80
2019-02-15T07:53:15.473Z,1.80
2019-02-15T07:55:59.129Z,1.90
2019-02-15T07:58:50.250Z,1.90
2019-02-15T08:01:40.745Z,2.00
2019-02-15T08:04:24.437Z,2.10
2019-02-15T08:07:15.726Z,2.10
2019-02-15T08:09:59.705Z,2.20
2019-02-15T08:12:51.043Z,2.20
2019-02-15T08:15:23.670Z,2.30
2019-02-15T08:18:14.857Z,2.50
2019-02-15T08:20:58.874Z,2.70
2019-02-15T08:23:51.893Z,2.70
2019-02-15T08:26:35.573Z,2.70
2019-02-15T08:29:26.657Z,2.80
2019-02-15T08:32:10.212Z,2.90
2019-02-15T08:35:01.496Z,3.00
2019-02-15T08:37:45.818Z,3.10
2019-02-15T08:40:37.558Z,3.00
2019-02-15T08:43:41.916Z,3.10
2019-02-15T08:46:33.023Z,3.20
2019-02-15T08:49:15.120Z,3.20
2019-02-15T08:52:10.153Z,3.30
2019-02-15T08:54:54.251Z,3.50
2019-02-15T08:57:39.359Z,3.60
2019-02-15T09:00:30.470Z,3.60
2019-02-15T09:03:14.184Z,3.70
2019-02-15T09:06:05.398Z,3.80
2019-02-15T09:08:49.471Z,3.90
2019-02-15T09:11:40.596Z,4.00
2019-02-15T09:14:24.199Z,4.10
2019-02-15T09:17:15.250Z,4.20
2019-02-15T09:19:58.812Z,4.20
2019-02-15T09:22:50.042Z,4.40
2019-02-15T09:25:35.439Z,4.50
2019-02-15T09:28:45.579Z,4.50
2019-02-15T09:31:29.827Z,4.70
2019-02-15T09:34:01.902Z,4.80
2019-02-15T09:36:46.017Z,4.90
2019-02-15T09:39:29.358Z,5.00
2019-02-15T09:42:13.083Z,5.20
2019-02-15T09:45:04.389Z,5.30
2019-02-15T09:47:50.003Z,5.40
2019-02-15T09:50:41.212Z,5.60
2019-02-15T09:53:24.748Z,5.70
2019-02-15T09:56:08.858Z,5.90
2019-02-15T09:58:59.910Z,6.00
2019-02-15T10:01:44.011Z,6.10
2019-02-15T10:04:28.567Z,6.20
2019-02-15T10:07:19.793Z,6.20
2019-02-15T10:09:51.875Z,6.40
2019-02-15T10:12:42.994Z,6.40
2019-02-15T10:15:27.043Z,6.50
2019-02-15T10:18:18.298Z,6.60
2019-02-15T10:21:02.317Z,6.80
2019-02-15T10:23:53.570Z,6.90
2019-02-15T10:26:38.353Z,7.20
2019-02-15T10:29:29.522Z,7.40
2019-02-15T10:32:01.635Z,7.50
2019-02-15T10:34:34.214Z,7.60
2019-02-15T10:37:06.295Z,7.60
2019-02-15T10:39:57.619Z,7.70
2019-02-15T10:42:41.648Z,7.80
2019-02-15T10:45:32.923Z,8.00
2019-02-15T10:48:16.898Z,8.10
2019-02-15T10:51:08.064Z,8.20
2019-02-15T10:53:53.238Z,8.30
2019-02-15T10:56:44.350Z,8.50
2019-02-15T10:59:28.341Z,8.60
2019-02-15T11:02:19.675Z,8.70
2019-02-15T11:05:07.984Z,8.80
2019-02-15T11:08:02.193Z,9.00
2019-02-15T11:10:46.137Z,9.20
2019-02-15T11:13:37.280Z,9.30
2019-02-15T11:16:21.404Z,9.40
2019-02-15T11:19:33.217Z,9.50
2019-02-15T11:22:17.457Z,9.60
2019-02-15T11:25:02.814Z,9.80
2019-02-15T11:27:54.143Z,9.90
2019-02-15T11:30:41.392Z,10.00
2019-02-15T11:33:32.492Z,10.10
2019-02-15T11:36:14.703Z,10.20
2019-02-15T11:42:16.763Z,10.40
2019-02-15T11:45:00.442Z,10.60
2019-02-15T11:47:53.024Z,10.70
2019-02-15T11:50:37.271Z,10.80
2019-02-15T11:53:28.723Z,10.90
2019-02-15T11:56:12.830Z,11.00
2019-02-15T11:59:03.954Z,11.10
2019-02-15T12:01:48.776Z,11.20
2019-02-15T12:04:40.315Z,11.30
2019-02-15T12:07:24.197Z,11.50
2019-02-15T12:10:16.970Z,11.60
2019-02-15T12:13:00.487Z,11.70
2019-02-15T12:15:51.570Z,11.90
2019-02-15T12:18:23.554Z,12.00
2019-02-15T12:21:07.063Z,12.10
2019-02-15T12:23:51.023Z,12.20
2019-02-15T12:26:42.304Z,12.40
2019-02-15T12:29:26.605Z,12.40
2019-02-15T12:32:17.682Z,12.50
2019-02-15T12:35:02.101Z,12.50
2019-02-15T12:37:53.288Z,12.60
2019-02-15T12:40:25.389Z,12.70
2019-02-15T12:43:09.336Z,12.80
2019-02-15T12:46:00.519Z,12.90
2019-02-15T12:48:47.355Z,13.00
2019-02-15T12:51:38.707Z,13.10
2019-02-15T12:54:10.820Z,13.10
2019-02-15T12:56:54.295Z,13.20
2019-02-15T12:59:26.381Z,13.40
2019-02-15T13:02:17.543Z,13.50
2019-02-15T13:04:49.839Z,13.50
2019-02-15T13:07:33.839Z,13.60
2019-02-15T13:10:21.587Z,13.70
2019-02-15T13:13:06.027Z,13.70
2019-02-15T13:15:50.660Z,13.80
2019-02-15T13:18:35.835Z,13.80
2019-02-15T13:21:27.293Z,13.90
2019-02-15T13:24:12.449Z,14.00
2019-02-15T13:27:04.015Z,14.00
2019-02-15T13:29:47.752Z,14.00
2019-02-15T13:32:38.913Z,14.10
2019-02-15T13:35:23.060Z,14.10
2019-02-15T13:38:14.308Z,14.10
2019-02-15T13:40:58.315Z,14.20
2019-02-15T13:43:42.467Z,14.20
2019-02-15T13:46:26.638Z,14.30
2019-02-15T13:49:12.973Z,14.40
2019-02-15T13:52:03.854Z,14.40
2019-02-15T13:54:48.250Z,14.30
2019-02-15T13:57:39.541Z,14.30
2019-02-15T14:00:23.287Z,14.40
2019-02-15T14:03:14.454Z,14.40
2019-02-15T14:05:58.562Z,14.40
2019-02-15T14:08:30.838Z,14.40
2019-02-15T14:11:14.531Z,14.50
2019-02-15T14:14:05.672Z,14.40
2019-02-15T14:16:49.682Z,14.50
2019-02-15T14:19:40.938Z,14.50
2019-02-15T14:22:24.339Z,14.60
2019-02-15T14:25:08.512Z,14.60
2019-02-15T14:27:59.679Z,14.70
2019-02-15T14:30:44.033Z,14.70
2019-02-15T14:33:35.094Z,14.70
2019-02-15T14:36:19.114Z,14.70
2019-02-15T14:39:03.652Z,14.70
2019-02-15T14:41:56.335Z,14.80
2019-02-15T14:44:39.749Z,14.90
2019-02-15T14:47:23.070Z,14.90
2019-02-15T14:50:07.401Z,14.80
2019-02-15T14:52:58.600Z,14.80
2019-02-15T14:55:30.517Z,14.90
2019-02-15T14:58:14.506Z,15.00
2019-02-15T15:01:05.629Z,14.90
2019-02-15T15:03:49.253Z,15.00
2019-02-15T15:06:40.340Z,15.00
2019-02-15T15:09:24.312Z,15.10
2019-02-15T15:12:15.469Z,15.00
2019-02-15T15:14:58.849Z,15.10
2019-02-15T15:17:50.176Z,15.00
2019-02-15T15:20:34.368Z,15.00
2019-02-15T15:23:25.500Z,15.00
2019-02-15T15:26:11.886Z,15.00
2019-02-15T15:29:02.040Z,15.00
2019-02-15T15:31:44.392Z,14.90
2019-02-15T15:34:35.534Z,15.00
2019-02-15T15:37:23.671Z,15.00
2019-02-15T15:40:14.858Z,14.90
2019-02-15T15:42:59.122Z,14.90
2019-02-15T15:45:50.424Z,14.90
2019-02-15T15:48:34.337Z,14.80
2019-02-15T15:54:23.185Z,14.80
2019-02-15T15:57:14.329Z,14.80
2019-02-15T15:59:57.843Z,14.70
2019-02-15T16:02:48.974Z,14.60
2019-02-15T16:05:33.895Z,14.50
2019-02-15T16:08:25.078Z,14.50
2019-02-15T16:11:08.698Z,14.50
2019-02-15T16:13:59.789Z,14.40
2019-02-15T16:16:43.232Z,14.30
2019-02-15T16:19:40.519Z,14.20
2019-02-15T16:22:26.151Z,14.10
2019-02-15T16:25:18.182Z,14.10
2019-02-15T16:27:50.015Z,14.00
2019-02-15T16:30:41.371Z,14.00
2019-02-15T16:33:13.551Z,13.90
2019-02-15T16:35:58.630Z,13.80
2019-02-15T16:38:44.890Z,13.70
2019-02-15T16:41:50.009Z,13.60
2019-02-15T16:44:41.260Z,13.60
2019-02-15T16:47:50.583Z,13.40
2019-02-15T16:50:44.856Z,13.30
2019-02-15T16:53:28.811Z,13.20
2019-02-15T16:56:19.997Z,13.10
2019-02-15T16:59:04.090Z,13.00
2019-02-15T17:01:55.351Z,12.90
2019-02-15T17:04:39.112Z,12.70
2019-02-15T17:07:30.331Z,12.60
2019-02-15T17:10:14.107Z,12.50
2019-02-15T17:13:05.373Z,12.40
2019-02-15T17:15:48.954Z,12.30
2019-02-15T17:18:40.129Z,12.20
2019-02-15T17:21:26.419Z,12.10
2019-02-15T17:24:11.513Z,12.00
2019-02-15T17:27:02.777Z,12.00
2019-02-15T17:29:46.379Z,11.80
2019-02-15T17:32:30.566Z,11.70
2019-02-15T17:35:21.653Z,11.70
2019-02-15T17:38:05.835Z,11.60
2019-02-15T17:40:51.149Z,11.50
2019-02-15T17:43:34.820Z,11.40
2019-02-15T17:46:18.887Z,11.30
2019-02-15T17:49:09.956Z,11.20
2019-02-15T17:51:53.656Z,11.20
2019-02-15T17:54:44.747Z,11.00
2019-02-15T17:57:28.646Z,10.90
2019-02-15T18:03:16.518Z,10.70
2019-02-15T18:06:00.048Z,10.60
2019-02-15T18:08:52.089Z,10.50
2019-02-15T18:11:36.744Z,10.40
2019-02-15T18:14:22.592Z,10.30
2019-02-15T18:17:06.753Z,10.20
2019-02-15T18:19:58.021Z,10.10
2019-02-15T18:22:42.134Z,10.10
2019-02-15T18:25:33.347Z,10.00
2019-02-15T18:28:16.814Z,9.80
2019-02-15T18:31:07.946Z,9.70
2019-02-15T18:33:59.149Z,9.60
2019-02-15T18:36:31.189Z,9.50
2019-02-15T18:39:22.427Z,9.50
2019-02-15T18:42:06.380Z,9.40
2019-02-15T18:44:57.572Z,9.30
2019-02-15T18:50:42.806Z,9.10
2019-02-15T18:53:29.331Z,9.00
2019-02-15T18:56:20.484Z,9.00
2019-02-15T18:59:06.262Z,8.90
2019-02-15T19:01:57.651Z,8.80
2019-02-15T19:04:39.999Z,8.80
2019-02-15T19:07:34.512Z,8.70
2019-02-15T19:10:18.583Z,8.50
2019-02-15T19:13:21.013Z,8.40
2019-02-15T19:19:39.983Z,8.20
2019-02-15T19:22:31.079Z,8.20
2019-02-15T19:25:14.863Z,8.10
2019-02-15T19:28:06.190Z,8.00
2019-02-15T19:30:49.556Z,7.90
2019-02-15T19:33:40.854Z,7.80
2019-02-15T19:36:26.087Z,7.80
2019-02-15T19:39:01.322Z,7.60
2019-02-15T19:41:47.077Z,7.60
2019-02-15T19:44:38.211Z,7.60
2019-02-15T19:47:22.195Z,7.50
2019-02-15T19:53:27.123Z,7.40
2019-02-15T19:59:41.307Z,7.20
2019-02-15T20:02:32.611Z,7.10
2019-02-15T20:05:16.427Z,7.10
2019-02-15T20:08:07.589Z,7.00
2019-02-15T20:10:39.609Z,7.00
2019-02-15T20:13:23.656Z,6.90
2019-02-15T20:15:55.600Z,6.90
2019-02-15T20:18:39.204Z,6.80
2019-02-15T20:21:30.435Z,6.80
2019-02-15T20:24:14.633Z,6.70
2019-02-15T20:26:58.825Z,6.60
2019-02-15T20:29:50.038Z,6.60
2019-02-15T20:32:34.000Z,6.50
2019-02-15T20:35:25.205Z,6.40
2019-02-15T20:38:10.405Z,6.40
2019-02-15T20:41:01.543Z,6.30
2019-02-15T20:43:45.390Z,6.30
2019-02-15T20:46:36.494Z,6.30
2019-02-15T20:49:20.395Z,6.30
2019-02-15T20:52:03.898Z,6.20
2019-02-15T20:54:54.987Z,6.10
2019-02-15T20:57:39.044Z,6.10
2019-02-15T21:00:23.250Z,6.00
2019-02-15T21:03:14.438Z,6.00
2019-02-15T21:05:57.962Z,5.90
2019-02-15T21:08:49.567Z,5.90
2019-02-15T21:11:33.342Z,5.80
2019-02-15T21:14:24.649Z,5.80
2019-02-15T21:17:08.372Z,5.70
2019-02-15T21:20:07.386Z,5.70
2019-02-15T21:23:04.173Z,5.70
2019-02-15T21:25:55.306Z,5.60
2019-02-15T21:28:39.068Z,5.60
2019-02-15T21:34:05.340Z,5.50
2019-02-15T21:36:56.511Z,5.40
2019-02-15T21:39:28.407Z,5.30
2019-02-15T21:42:00.716Z,5.30
2019-02-15T21:44:45.082Z,5.20
2019-02-15T21:47:37.121Z,5.20
2019-02-15T21:50:21.371Z,5.20
2019-02-15T21:53:12.598Z,5.20
2019-02-15T21:55:56.253Z,5.10
2019-02-15T21:58:47.682Z,5.10
2019-02-15T22:01:31.679Z,5.10
2019-02-15T22:04:22.798Z,5.00
2019-02-15T22:06:54.808Z,5.00
2019-02-15T22:09:46.070Z,5.00
2019-02-15T22:12:29.898Z,4.90
2019-02-15T22:15:21.160Z,4.90
2019-02-15T22:18:04.819Z,4.80
2019-02-15T22:20:56.088Z,4.80
2019-02-15T22:23:28.087Z,4.70
2019-02-15T22:26:00.110Z,4.70
2019-02-15T22:28:34.248Z,4.60
2019-02-15T22:31:25.520Z,4.60
2019-02-15T22:33:57.448Z,4.60
2019-02-15T22:36:48.552Z,4.50
2019-02-15T22:39:33.420Z,4.50
2019-02-15T22:42:24.616Z,4.50
2019-02-15T22:45:06.906Z,4.40
2019-02-15T22:47:58.013Z,4.40
2019-02-15T22:50:41.679Z,4.40
2019-02-15T22:53:32.885Z,4.30
2019-02-15T22:56:16.805Z,4.30
2019-02-15T22:59:07.942Z,4.30
2019-02-15T23:01:51.595Z,4.20
2019-02-15T23:04:42.735Z,4.20
2019-02-15T23:07:26.909Z,4.10
2019-02-15T23:10:18.095Z,4.10
2019-02-15T23:13:02.164Z,4.00
2019-02-15T23:15:53.459Z,4.00
2019-02-15T23:18:41.949Z,4.00
2019-02-15T23:21:33.181Z,3.90
2019-02-15T23:24:16.618Z,3.90
2019-02-15T23:27:07.849Z,3.90
2019-02-15T23:29:51.513Z,3.80
2019-02-15T23:32:42.833Z,3.80
2019-02-15T23:35:26.351Z,3.80
2019-02-15T23:38:17.499Z,3.80
2019-02-15T23:41:01.350Z,3.80
2019-02-15T23:43:45.549Z,3.80
2019-02-15T23:46:29.700Z,3.80
2019-02-15T23:49:20.934Z,3.70
2019-02-15T23:52:03.203Z,3.70
2019-02-15T23:54:54.271Z,3.60
2019-02-15T23:57:38.447Z,3.60
